Terminal Aerodrome Forecast
Issued by NWS

Home | Current Version | Previous Version | Text Only | Print | Product List | Glossary On
Versions: 1 2 3 4 5 6 7 8 9 10 11 12 13 14 15 16 17 18 19 20 21 22 23 24 25 26 27 28
000
FTUS46 KLOX 251155 AAA
TAFOXR
TAF AMD
KOXR 251155Z 2512/2612 VRB05KT 6SM BR BKN006
     FM251300 VRB05KT 5SM BR OVC006
     FM251530 VRB05KT 6SM BR SCT008
     FM251700 29008KT P6SM SKC
     FM252100 26011KT P6SM SKC
     FM260500 VRB05KT P6SM SKC
     FM261000 VRB03KT P6SM SCT006=

USA.gov is the U.S. government's official web portal to all federal, state and local government web resources and services.